createdAt,value
2019-05-02T00:02:15.019Z,14.02
2019-05-02T00:04:51.014Z,14.02
2019-05-02T00:07:24.216Z,14.01
2019-05-02T00:09:56.599Z,14.05
2019-05-02T00:12:29.179Z,14.04
2019-05-02T00:15:09.180Z,14.01
2019-05-02T00:17:41.967Z,13.98
2019-05-02T00:20:15.892Z,13.98
2019-05-02T00:22:52.184Z,14.01
2019-05-02T00:25:23.947Z,14.03
2019-05-02T00:27:55.874Z,13.82
2019-05-02T00:30:29.997Z,13.71
2019-05-02T00:33:02.690Z,13.63
2019-05-02T00:35:34.635Z,13.50
2019-05-02T00:38:08.678Z,13.45
2019-05-02T00:40:40.637Z,13.39
2019-05-02T00:43:12.616Z,13.35
2019-05-02T00:45:45.675Z,13.39
2019-05-02T00:48:29.450Z,13.35
2019-05-02T00:51:03.303Z,13.38
2019-05-02T00:53:35.393Z,13.38
2019-05-02T00:56:09.078Z,13.37
2019-05-02T00:58:44.236Z,13.34
2019-05-02T01:01:37.809Z,13.37
2019-05-02T01:04:29.041Z,13.33
2019-05-02T01:07:01.599Z,13.29
2019-05-02T01:09:34.164Z,13.29
2019-05-02T01:12:08.460Z,13.27
2019-05-02T01:14:39.885Z,13.10
2019-05-02T01:17:11.836Z,13.18
2019-05-02T01:19:51.380Z,13.21
2019-05-02T01:22:23.786Z,13.22
2019-05-02T01:24:55.906Z,13.19
2019-05-02T01:27:46.759Z,13.17
2019-05-02T01:30:44.013Z,13.21
2019-05-02T01:33:26.067Z,13.18
2019-05-02T01:36:23.948Z,13.12
2019-05-02T01:39:02.875Z,13.06
2019-05-02T01:41:39.852Z,12.90
2019-05-02T01:44:13.145Z,12.84
2019-05-02T01:46:45.321Z,12.83
2019-05-02T01:49:21.825Z,12.78
2019-05-02T01:51:54.582Z,12.82
2019-05-02T01:54:26.803Z,12.81
2019-05-02T01:56:58.718Z,12.86
2019-05-02T01:59:33.970Z,12.90
2019-05-02T02:02:05.194Z,12.96
2019-05-02T02:04:37.464Z,13.04
2019-05-02T02:07:09.591Z,13.06
2019-05-02T02:09:43.898Z,13.08
2019-05-02T02:12:18.228Z,13.12
2019-05-02T02:14:53.627Z,13.09
2019-05-02T02:17:24.085Z,13.04
2019-05-02T02:20:00.912Z,12.87
2019-05-02T02:22:44.230Z,12.70
2019-05-02T02:25:36.240Z,12.60
2019-05-02T02:28:08.081Z,12.57
2019-05-02T02:30:40.134Z,12.52
2019-05-02T02:33:13.464Z,12.51
2019-05-02T02:35:50.344Z,12.57
2019-05-02T02:38:19.503Z,12.63
2019-05-02T02:40:51.656Z,12.63
2019-05-02T02:43:33.859Z,12.63
2019-05-02T02:46:16.295Z,12.64
2019-05-02T02:48:48.250Z,12.62
2019-05-02T02:51:23.603Z,12.56
2019-05-02T02:54:03.675Z,12.51
2019-05-02T02:56:34.512Z,12.43
2019-05-02T02:59:03.946Z,12.43
2019-05-02T03:01:35.981Z,12.33
2019-05-02T03:04:10.148Z,12.28
2019-05-02T03:06:44.850Z,12.19
2019-05-02T03:09:20.252Z,12.14
2019-05-02T03:12:09.017Z,12.07
2019-05-02T03:14:47.154Z,12.07
2019-05-02T03:17:25.351Z,11.96
2019-05-02T03:19:54.435Z,11.79
2019-05-02T03:22:34.762Z,11.73
2019-05-02T03:25:03.128Z,11.59
2019-05-02T03:27:37.403Z,11.46
2019-05-02T03:30:29.641Z,11.39
2019-05-02T03:33:02.687Z,11.38
2019-05-02T03:35:40.882Z,11.36
2019-05-02T03:37:55.400Z,11.05
2019-05-02T03:40:32.238Z,11.19
2019-05-02T03:43:01.660Z,11.22
2019-05-02T03:45:40.100Z,11.17
2019-05-02T03:48:07.529Z,11.26
2019-05-02T03:50:40.199Z,11.30
2019-05-02T03:53:17.701Z,11.45
2019-05-02T03:55:46.092Z,11.55
2019-05-02T03:58:20.935Z,11.56
2019-05-02T04:01:00.307Z,11.62
2019-05-02T04:03:27.142Z,11.68
2019-05-02T04:05:59.237Z,11.65
2019-05-02T04:08:33.562Z,11.58
2019-05-02T04:11:25.579Z,11.51
2019-05-02T04:13:58.043Z,11.55
2019-05-02T04:16:31.974Z,11.55
2019-05-02T04:19:05.297Z,11.53
2019-05-02T04:21:37.622Z,11.46
2019-05-02T04:24:15.001Z,11.41
2019-05-02T04:26:52.927Z,11.40
2019-05-02T04:29:24.578Z,11.35
2019-05-02T04:31:53.268Z,11.35
2019-05-02T04:34:25.299Z,11.23
2019-05-02T04:37:00.912Z,11.19
2019-05-02T04:39:31.010Z,11.24
2019-05-02T04:42:13.034Z,11.26
2019-05-02T04:44:46.319Z,11.12
2019-05-02T04:47:17.540Z,11.19
2019-05-02T04:49:51.508Z,11.29
2019-05-02T04:52:21.512Z,11.36
2019-05-02T04:55:08.398Z,11.26
2019-05-02T04:57:36.982Z,11.27
2019-05-02T05:00:08.631Z,11.33
2019-05-02T05:02:40.067Z,11.45
2019-05-02T05:05:19.443Z,11.55
2019-05-02T05:07:49.509Z,11.59
2019-05-02T05:10:21.766Z,11.59
2019-05-02T05:12:53.832Z,11.62
2019-05-02T05:15:37.145Z,11.61
2019-05-02T05:17:59.406Z,11.62
2019-05-02T05:20:31.402Z,11.46
2019-05-02T05:23:03.353Z,11.35
2019-05-02T05:25:40.322Z,11.23
2019-05-02T05:28:12.233Z,11.13
2019-05-02T05:30:49.182Z,11.02
2019-05-02T05:33:20.767Z,10.97
2019-05-02T05:35:52.835Z,10.97
2019-05-02T05:38:28.539Z,11.03
2019-05-02T05:41:02.981Z,11.04
2019-05-02T05:43:38.134Z,11.22
2019-05-02T05:46:13.144Z,11.30
2019-05-02T05:48:44.303Z,11.42
2019-05-02T05:51:20.438Z,11.57
2019-05-02T05:53:52.311Z,11.64
2019-05-02T05:56:23.450Z,11.51
2019-05-02T05:58:58.851Z,11.59
2019-05-02T06:01:34.674Z,11.62
2019-05-02T06:04:05.220Z,11.49
2019-05-02T06:06:38.759Z,11.62
2019-05-02T06:09:14.296Z,11.71
2019-05-02T06:11:46.333Z,11.84
2019-05-02T06:14:19.935Z,12.09
2019-05-02T06:16:53.183Z,13.15
2019-05-02T06:19:26.603Z,15.13
2019-05-02T06:21:59.151Z,17.13
2019-05-02T06:24:33.919Z,19.20
2019-05-02T06:27:05.275Z,20.81
2019-05-02T06:29:37.461Z,22.14
2019-05-02T06:32:14.029Z,23.88
2019-05-02T06:34:47.558Z,24.67
2019-05-02T06:37:20.461Z,25.06
2019-05-02T06:39:52.348Z,25.41
2019-05-02T06:42:32.722Z,25.16
2019-05-02T06:45:03.623Z,23.94
2019-05-02T06:47:35.950Z,24.93
2019-05-02T06:50:09.809Z,24.64
2019-05-02T06:52:41.729Z,25.06
2019-05-02T06:55:13.826Z,25.96
2019-05-02T06:57:51.813Z,25.77
2019-05-02T07:00:35.613Z,24.66
2019-05-02T07:03:10.319Z,24.44
2019-05-02T07:05:39.643Z,24.28
2019-05-02T07:08:39.546Z,23.48
2019-05-02T07:11:11.825Z,24.48
2019-05-02T07:13:43.958Z,24.89
2019-05-02T07:16:37.525Z,24.44
2019-05-02T07:19:01.417Z,23.72
2019-05-02T07:21:33.460Z,22.74
2019-05-02T07:24:07.196Z,22.81
2019-05-02T07:26:39.437Z,24.00
2019-05-02T07:29:17.056Z,23.95
2019-05-02T07:31:47.762Z,24.19
2019-05-02T07:34:21.612Z,24.18
2019-05-02T07:36:53.653Z,25.15
2019-05-02T07:39:25.640Z,25.65
2019-05-02T07:42:00.554Z,27.18
2019-05-02T07:44:34.662Z,27.18
2019-05-02T07:47:06.706Z,25.83
2019-05-02T07:49:38.760Z,24.90
2019-05-02T07:52:10.728Z,25.14
2019-05-02T07:54:42.744Z,25.99
2019-05-02T07:57:15.168Z,26.37
2019-05-02T07:59:49.888Z,28.00
2019-05-02T08:02:24.997Z,30.04
2019-05-02T08:04:56.094Z,32.96
2019-05-02T08:07:34.290Z,33.35
2019-05-02T08:10:01.922Z,34.74
2019-05-02T08:12:34.662Z,34.89
2019-05-02T08:15:13.061Z,33.25
2019-05-02T08:17:44.094Z,30.73
2019-05-02T08:20:19.353Z,33.57
2019-05-02T08:22:50.757Z,33.66
2019-05-02T08:25:24.480Z,34.52
2019-05-02T08:28:16.025Z,33.32
2019-05-02T08:30:52.275Z,35.72
2019-05-02T08:33:29.429Z,35.52
2019-05-02T08:35:58.841Z,34.96
2019-05-02T08:38:30.824Z,33.94
2019-05-02T08:41:02.823Z,32.50
2019-05-02T08:43:34.772Z,31.78
2019-05-02T08:46:09.536Z,31.78
2019-05-02T08:48:41.870Z,30.98
2019-05-02T08:51:14.681Z,30.60
2019-05-02T08:53:46.627Z,29.90
2019-05-02T08:56:21.366Z,30.84
2019-05-02T08:58:54.012Z,29.81
2019-05-02T09:01:34.929Z,30.85
2019-05-02T09:04:00.420Z,30.81
2019-05-02T09:06:32.351Z,31.33
2019-05-02T09:09:08.372Z,32.14
2019-05-02T09:11:41.527Z,32.14
2019-05-02T09:14:13.828Z,32.53
2019-05-02T09:16:46.193Z,31.99
2019-05-02T09:19:21.217Z,32.31
2019-05-02T09:21:53.592Z,31.51
2019-05-02T09:24:25.605Z,31.88
2019-05-02T09:26:59.506Z,30.41
2019-05-02T09:29:32.696Z,30.62
2019-05-02T09:32:05.094Z,31.43
2019-05-02T09:34:38.076Z,32.43
2019-05-02T09:37:12.091Z,33.28
2019-05-02T09:39:44.304Z,32.34
2019-05-02T09:42:19.108Z,32.28
2019-05-02T09:44:56.784Z,33.28
2019-05-02T09:47:33.271Z,32.12
2019-05-02T09:50:20.546Z,32.81
2019-05-02T09:52:52.558Z,32.75
2019-05-02T09:55:26.718Z,32.28
2019-05-02T09:58:02.483Z,32.17
2019-05-02T10:00:45.806Z,31.73
2019-05-02T10:03:18.214Z,32.92
2019-05-02T10:05:52.177Z,33.31
2019-05-02T10:08:26.158Z,33.47
2019-05-02T10:10:58.418Z,34.31
2019-05-02T10:13:32.129Z,35.53
2019-05-02T10:16:04.409Z,34.53
2019-05-02T10:18:36.433Z,34.88
2019-05-02T10:21:13.560Z,34.74
2019-05-02T10:23:42.833Z,33.72
2019-05-02T10:26:20.110Z,33.96
2019-05-02T10:28:50.671Z,34.73
2019-05-02T10:31:22.903Z,34.25
2019-05-02T10:33:54.870Z,34.09
2019-05-02T10:36:26.980Z,34.40
2019-05-02T10:38:59.452Z,34.35
2019-05-02T10:41:39.528Z,34.58
2019-05-02T10:44:05.891Z,34.07
2019-05-02T10:46:49.245Z,33.62
2019-05-02T10:49:26.447Z,32.72
2019-05-02T10:51:58.424Z,33.28
2019-05-02T10:54:36.183Z,33.77
2019-05-02T10:57:06.507Z,34.16
2019-05-02T10:59:38.457Z,34.42
2019-05-02T11:02:22.209Z,33.66
2019-05-02T11:04:59.051Z,34.89
2019-05-02T11:07:32.663Z,35.10
2019-05-02T11:10:06.872Z,36.36
2019-05-02T11:12:46.939Z,37.04
2019-05-02T11:15:38.591Z,36.56
2019-05-02T11:18:12.649Z,36.07
2019-05-02T11:20:44.497Z,35.70
2019-05-02T11:23:16.858Z,35.04
2019-05-02T11:25:48.990Z,35.38
2019-05-02T11:28:22.091Z,34.41
2019-05-02T11:30:57.019Z,34.01
2019-05-02T11:33:29.556Z,33.81
2019-05-02T11:36:02.544Z,32.91
2019-05-02T11:38:48.222Z,32.55
2019-05-02T11:41:08.813Z,32.67
2019-05-02T11:43:42.389Z,33.92
2019-05-02T11:46:14.449Z,32.30
2019-05-02T11:48:55.651Z,31.49
2019-05-02T11:51:22.678Z,30.29
2019-05-02T11:53:59.440Z,29.11
2019-05-02T11:56:32.804Z,28.47
2019-05-02T11:59:06.011Z,28.21
2019-05-02T12:01:39.804Z,27.81
2019-05-02T12:04:16.600Z,27.58
2019-05-02T12:06:50.083Z,27.13
2019-05-02T12:09:19.870Z,26.59
2019-05-02T12:11:56.536Z,27.09
2019-05-02T12:14:27.450Z,27.19
2019-05-02T12:16:59.329Z,27.13
2019-05-02T12:19:32.222Z,27.47
2019-05-02T12:22:07.127Z,27.84
2019-05-02T12:24:40.897Z,27.40
2019-05-02T12:27:11.899Z,27.47
2019-05-02T12:29:44.095Z,27.75
2019-05-02T12:32:17.963Z,27.68
2019-05-02T12:34:50.000Z,27.74
2019-05-02T12:37:22.167Z,27.15
2019-05-02T12:39:54.173Z,27.55
2019-05-02T12:42:26.567Z,27.78
2019-05-02T12:44:58.906Z,28.31
2019-05-02T12:47:31.939Z,28.58
2019-05-02T12:50:04.579Z,28.42
2019-05-02T12:52:36.709Z,28.42
2019-05-02T12:55:08.941Z,28.10
2019-05-02T12:57:42.850Z,28.15
2019-05-02T13:00:18.472Z,27.92
2019-05-02T13:03:11.757Z,27.77
2019-05-02T13:05:45.911Z,28.05
2019-05-02T13:08:18.188Z,27.91
2019-05-02T13:11:14.978Z,27.63
2019-05-02T13:13:47.238Z,28.11
2019-05-02T13:16:22.560Z,27.86
2019-05-02T13:18:57.262Z,28.14
2019-05-02T13:21:42.226Z,28.24
2019-05-02T13:24:16.597Z,27.79
2019-05-02T13:26:52.027Z,27.81
2019-05-02T13:29:23.312Z,27.60
2019-05-02T13:32:08.692Z,28.23
2019-05-02T13:34:48.332Z,28.41
2019-05-02T13:37:19.566Z,28.21
2019-05-02T13:40:17.183Z,27.88
2019-05-02T13:42:52.199Z,28.20
2019-05-02T13:45:45.766Z,28.19
2019-05-02T13:48:21.800Z,28.28
2019-05-02T13:50:53.878Z,28.41
2019-05-02T13:53:26.141Z,28.36
2019-05-02T13:56:17.002Z,28.26
2019-05-02T13:58:48.944Z,28.48
2019-05-02T14:01:22.391Z,28.43
2019-05-02T14:03:55.853Z,28.36
2019-05-02T14:06:29.810Z,28.35
2019-05-02T14:09:40.315Z,28.54
2019-05-02T14:12:37.454Z,28.40
2019-05-02T14:15:13.663Z,28.19
2019-05-02T14:17:45.311Z,27.97
2019-05-02T14:20:22.344Z,27.74
2019-05-02T14:22:54.721Z,27.82
2019-05-02T14:25:28.176Z,28.04
2019-05-02T14:28:00.161Z,28.15
2019-05-02T14:30:39.315Z,28.39
2019-05-02T14:33:12.146Z,28.35
2019-05-02T14:35:46.010Z,28.56
2019-05-02T14:38:18.249Z,28.48
2019-05-02T14:41:13.397Z,28.46
2019-05-02T14:43:52.623Z,28.41
2019-05-02T14:46:34.313Z,28.07
2019-05-02T14:49:02.714Z,28.07
2019-05-02T14:51:36.760Z,27.91
2019-05-02T14:54:17.096Z,27.88
2019-05-02T14:56:57.249Z,28.36
2019-05-02T14:59:29.477Z,28.36
2019-05-02T15:02:07.392Z,28.16
2019-05-02T15:04:44.387Z,28.16
2019-05-02T15:07:17.687Z,27.97
2019-05-02T15:09:48.123Z,27.94
2019-05-02T15:12:37.833Z,28.04
2019-05-02T15:15:12.293Z,28.28
2019-05-02T15:17:44.645Z,28.41
2019-05-02T15:20:19.814Z,28.34
2019-05-02T15:22:53.495Z,28.20
2019-05-02T15:25:25.750Z,28.19
2019-05-02T15:27:59.959Z,28.18
2019-05-02T15:30:37.288Z,28.11
2019-05-02T15:33:12.401Z,28.33
2019-05-02T15:36:05.727Z,28.37
2019-05-02T15:38:37.353Z,28.49
2019-05-02T15:41:10.438Z,28.08
2019-05-02T15:43:44.615Z,28.07
2019-05-02T15:46:23.634Z,28.05
2019-05-02T15:48:51.979Z,28.06
2019-05-02T15:51:25.889Z,27.97
2019-05-02T15:54:08.485Z,28.12
2019-05-02T15:57:00.149Z,28.23
2019-05-02T15:59:42.267Z,28.23
2019-05-02T16:02:13.110Z,28.41
2019-05-02T16:04:46.921Z,28.41
2019-05-02T16:07:22.356Z,28.48
2019-05-02T16:09:59.379Z,28.57
2019-05-02T16:12:32.173Z,28.73
2019-05-02T16:15:02.442Z,28.83
2019-05-02T16:17:36.822Z,28.89
2019-05-02T16:20:17.134Z,28.98
2019-05-02T16:22:52.313Z,28.84
2019-05-02T16:25:24.601Z,28.70
2019-05-02T16:28:02.665Z,28.54
2019-05-02T16:30:32.418Z,28.17
2019-05-02T16:33:07.977Z,28.24
2019-05-02T16:35:38.482Z,28.24
2019-05-02T16:38:12.267Z,28.27
2019-05-02T16:40:46.411Z,28.35
2019-05-02T16:43:18.364Z,28.37
2019-05-02T16:45:53.264Z,28.45
2019-05-02T16:48:30.600Z,28.27
2019-05-02T16:51:02.184Z,28.27
2019-05-02T16:53:36.178Z,28.24
2019-05-02T16:56:08.138Z,28.24
2019-05-02T16:58:43.388Z,28.03
2019-05-02T17:01:24.635Z,28.06
2019-05-02T17:03:57.668Z,28.20
2019-05-02T17:06:29.381Z,28.25
2019-05-02T17:09:28.713Z,28.09
2019-05-02T17:12:01.903Z,28.07
2019-05-02T17:14:33.982Z,28.09
2019-05-02T17:17:07.855Z,28.09
2019-05-02T17:19:39.811Z,28.06
2019-05-02T17:22:12.162Z,28.10
2019-05-02T17:24:44.604Z,28.18
2019-05-02T17:27:20.596Z,27.72
2019-05-02T17:29:52.491Z,27.72
2019-05-02T17:32:24.505Z,27.78
2019-05-02T17:35:02.620Z,27.73
2019-05-02T17:37:32.567Z,27.67
2019-05-02T17:40:05.612Z,27.69
2019-05-02T17:42:37.676Z,27.46
2019-05-02T17:45:10.447Z,27.46
2019-05-02T17:47:42.579Z,27.49
2019-05-02T17:50:28.761Z,27.54
2019-05-02T17:53:02.997Z,27.54
2019-05-02T17:55:40.370Z,27.50
2019-05-02T17:58:14.141Z,27.25
2019-05-02T18:00:47.357Z,27.15
2019-05-02T18:03:30.757Z,26.93
2019-05-02T18:05:57.480Z,26.69
2019-05-02T18:08:29.602Z,26.57
2019-05-02T18:11:02.765Z,26.46
2019-05-02T18:13:35.638Z,26.35
2019-05-02T18:16:15.010Z,26.38
2019-05-02T18:18:45.085Z,26.41
2019-05-02T18:21:24.932Z,26.44
2019-05-02T18:23:57.248Z,26.49
2019-05-02T18:26:27.400Z,26.37
2019-05-02T18:29:02.765Z,26.35
2019-05-02T18:31:39.629Z,26.31
2019-05-02T18:34:14.445Z,26.21
2019-05-02T18:36:44.613Z,26.08
2019-05-02T18:39:16.665Z,25.97
2019-05-02T18:41:51.972Z,25.83
2019-05-02T18:44:24.443Z,25.76
2019-05-02T18:46:57.973Z,25.65
2019-05-02T18:49:32.127Z,25.52
2019-05-02T18:52:04.662Z,25.39
2019-05-02T18:54:38.566Z,25.05
2019-05-02T18:57:17.082Z,24.94
2019-05-02T18:59:51.962Z,24.73
2019-05-02T19:02:26.405Z,24.58
2019-05-02T19:04:56.924Z,24.48
2019-05-02T19:07:33.188Z,24.30
2019-05-02T19:10:07.135Z,24.20
2019-05-02T19:12:39.324Z,24.14
2019-05-02T19:15:12.054Z,24.00
2019-05-02T19:17:49.453Z,23.82
2019-05-02T19:21:07.420Z,23.67
2019-05-02T19:23:39.944Z,23.54
2019-05-02T19:26:15.469Z,23.43
2019-05-02T19:28:53.468Z,23.31
2019-05-02T19:31:44.377Z,23.21
2019-05-02T19:34:16.754Z,23.09
2019-05-02T19:36:48.214Z,22.98
2019-05-02T19:39:23.925Z,22.83
2019-05-02T19:41:54.885Z,22.73
2019-05-02T19:44:29.454Z,22.60
2019-05-02T19:47:02.539Z,22.48
2019-05-02T19:49:34.797Z,22.39
2019-05-02T19:52:10.031Z,22.21
2019-05-02T19:54:43.645Z,22.02
2019-05-02T19:57:17.144Z,21.85
2019-05-02T19:59:52.409Z,21.74
2019-05-02T20:02:24.618Z,21.63
2019-05-02T20:04:57.169Z,21.58
2019-05-02T20:07:29.451Z,21.51
2019-05-02T20:10:01.951Z,21.45
2019-05-02T20:12:34.484Z,21.36
2019-05-02T20:15:09.040Z,21.27
2019-05-02T20:17:42.302Z,21.26
2019-05-02T20:21:12.213Z,21.21
2019-05-02T20:23:44.193Z,21.15
2019-05-02T20:26:17.133Z,21.06
2019-05-02T20:28:49.418Z,20.96
2019-05-02T20:31:22.044Z,20.91
2019-05-02T20:33:57.487Z,20.82
2019-05-02T20:36:29.696Z,20.74
2019-05-02T20:39:02.596Z,20.70
2019-05-02T20:41:36.357Z,20.63
2019-05-02T20:44:12.025Z,20.51
2019-05-02T20:46:44.337Z,20.40
2019-05-02T20:49:17.998Z,20.36
2019-05-02T20:51:51.809Z,20.33
2019-05-02T20:54:24.696Z,20.28
2019-05-02T20:56:57.306Z,20.20
2019-05-02T20:59:32.290Z,20.16
2019-05-02T21:02:04.797Z,20.14
2019-05-02T21:04:37.929Z,20.06
2019-05-02T21:07:38.288Z,20.06
2019-05-02T21:10:19.141Z,20.01
2019-05-02T21:12:52.594Z,19.91
2019-05-02T21:15:25.174Z,19.80
2019-05-02T21:17:57.384Z,19.80
2019-05-02T21:20:47.172Z,19.73
2019-05-02T21:23:43.397Z,19.71
2019-05-02T21:26:21.646Z,19.66
2019-05-02T21:29:06.843Z,19.54
2019-05-02T21:31:47.559Z,19.49
2019-05-02T21:34:31.703Z,19.43
2019-05-02T21:37:16.884Z,19.35
2019-05-02T21:40:02.753Z,19.31
2019-05-02T21:42:53.986Z,19.21
2019-05-02T21:45:37.672Z,19.16
2019-05-02T21:48:27.207Z,19.04
2019-05-02T21:51:19.940Z,18.86
2019-05-02T21:54:22.592Z,18.72
2019-05-02T21:57:19.082Z,18.52
2019-05-02T22:00:04.149Z,18.42
2019-05-02T22:02:45.844Z,18.30
2019-05-02T22:05:28.302Z,18.26
2019-05-02T22:08:12.162Z,18.12
2019-05-02T22:10:59.118Z,18.11
2019-05-02T22:13:55.736Z,18.06
2019-05-02T22:16:43.456Z,17.97
2019-05-02T22:19:21.985Z,17.92
2019-05-02T22:22:01.637Z,17.95
2019-05-02T22:24:45.006Z,17.93
2019-05-02T22:27:24.598Z,17.83
2019-05-02T22:30:12.399Z,17.80
2019-05-02T22:32:54.229Z,17.79
2019-05-02T22:35:30.208Z,17.77
2019-05-02T22:38:22.646Z,17.75
2019-05-02T22:41:12.149Z,17.76
2019-05-02T22:43:54.525Z,17.67
2019-05-02T22:46:47.354Z,17.60
2019-05-02T22:49:32.026Z,17.53
2019-05-02T22:52:14.344Z,17.47
2019-05-02T22:55:05.248Z,17.37
2019-05-02T22:57:58.924Z,17.26
2019-05-02T23:00:36.023Z,17.15
2019-05-02T23:03:12.636Z,17.10
2019-05-02T23:05:44.766Z,17.04
2019-05-02T23:08:18.090Z,16.99
2019-05-02T23:10:51.956Z,16.94
2019-05-02T23:13:27.498Z,16.90
2019-05-02T23:16:00.508Z,16.89
2019-05-02T23:18:33.214Z,16.83
2019-05-02T23:21:05.497Z,16.70
2019-05-02T23:23:41.721Z,16.67
2019-05-02T23:26:18.848Z,16.63
2019-05-02T23:28:52.829Z,16.48
2019-05-02T23:31:25.411Z,16.38
2019-05-02T23:34:02.117Z,16.39
2019-05-02T23:36:35.095Z,16.39
2019-05-02T23:39:12.427Z,16.35
2019-05-02T23:41:44.705Z,16.36
2019-05-02T23:44:16.836Z,16.32
2019-05-02T23:46:48.990Z,16.26
2019-05-02T23:49:24.497Z,16.10
2019-05-02T23:51:56.873Z,15.92
2019-05-02T23:54:28.970Z,15.76
2019-05-02T23:57:01.997Z,15.65
2019-05-02T23:59:34.475Z,15.59
